Time;durP1;ratioP1;P1;durP2;ratioP2;P2;SDS_P1;SDS_P2;PMS_P1;PMS_P2;Temp;Humidity;BMP_temperature;BMP_pressure;BME280_temperature;BME280_humidity;BME280_pressure;Samples;Min_cycle;Max_cycle;Signal;HPM_P1;HPM_P2
2023/04/22 00:00:03;;;;;;;9.37;7.90;;;11.60;99.90;;;;;;6253734;28;20475;-66
2023/04/22 00:03:07;;;;;;;9.33;8.20;;;11.60;99.90;;;;;;6253151;28;20486;-66
2023/04/22 00:06:10;;;;;;;11.67;8.30;;;11.60;99.90;;;;;;6253548;28;20816;-66
2023/04/22 00:09:14;;;;;;;12.67;8.40;;;11.50;99.90;;;;;;6253415;28;20481;-66
2023/04/22 00:12:18;;;;;;;9.30;7.83;;;11.40;99.90;;;;;;6252925;28;20471;-66
2023/04/22 00:15:21;;;;;;;10.10;7.43;;;11.40;99.90;;;;;;6252957;28;20486;-66
2023/04/22 00:18:24;;;;;;;8.70;7.90;;;11.40;99.90;;;;;;6253138;28;20482;-66
2023/04/22 00:21:28;;;;;;;12.10;7.90;;;11.30;99.90;;;;;;6252961;28;20479;-67
2023/04/22 00:24:31;;;;;;;9.43;7.23;;;11.30;99.90;;;;;;6252088;28;20958;-66
2023/04/22 00:27:36;;;;;;;8.20;7.40;;;11.20;99.90;;;;;;6253348;28;20467;-66
2023/04/22 00:30:39;;;;;;;8.10;7.40;;;11.20;99.90;;;;;;6253463;28;20467;-66
2023/04/22 00:33:42;;;;;;;9.27;7.20;;;11.10;99.90;;;;;;6252912;28;20486;-67
2023/04/22 00:36:46;;;;;;;8.47;7.67;;;11.10;99.90;;;;;;6252255;28;21033;-66
2023/04/22 00:39:49;;;;;;;10.37;7.00;;;11.10;99.90;;;;;;6252662;28;20486;-67
2023/04/22 00:42:54;;;;;;;9.23;6.73;;;11.00;99.90;;;;;;6252383;28;20466;-66
2023/04/22 00:45:57;;;;;;;8.33;7.20;;;11.00;99.90;;;;;;6160205;23;20467;-66
2023/04/22 00:49:01;;;;;;;9.57;8.67;;;11.00;99.90;;;;;;6151218;28;20494;-67
2023/04/22 00:52:05;;;;;;;8.03;7.23;;;10.90;99.90;;;;;;6150946;28;20454;-66
2023/04/22 00:55:09;;;;;;;11.73;8.80;;;10.90;99.90;;;;;;6151351;28;20486;-66
2023/04/22 00:58:14;;;;;;;8.37;7.67;;;10.90;99.90;;;;;;6151546;28;20469;-66
2023/04/22 01:01:17;;;;;;;11.13;7.70;;;10.80;99.90;;;;;;6151601;28;20434;-66
2023/04/22 01:04:21;;;;;;;6.70;6.10;;;10.80;99.90;;;;;;6150635;28;20479;-66
2023/04/22 01:07:25;;;;;;;7.80;7.00;;;10.80;99.90;;;;;;6151465;28;20545;-66
2023/04/22 01:10:31;;;;;;;7.93;6.13;;;10.70;99.90;;;;;;6151396;28;20472;-66
2023/04/22 01:13:37;;;;;;;8.13;7.33;;;10.60;99.90;;;;;;6150653;28;21033;-66
2023/04/22 01:16:42;;;;;;;8.27;7.57;;;10.60;99.90;;;;;;6151091;28;20562;-67
2023/04/22 01:19:46;;;;;;;7.93;6.73;;;10.60;99.90;;;;;;6150906;28;20998;-66
2023/04/22 01:22:53;;;;;;;8.60;7.50;;;10.40;99.90;;;;;;6151055;28;20486;-66
2023/04/22 01:25:57;;;;;;;8.17;7.47;;;10.40;99.90;;;;;;6150667;28;20975;-66
2023/04/22 01:29:02;;;;;;;8.20;7.50;;;10.30;99.90;;;;;;6150840;28;20479;-66
2023/04/22 01:32:05;;;;;;;7.73;6.90;;;10.30;99.90;;;;;;6142073;28;20471;-66
2023/04/22 01:35:10;;;;;;;7.07;6.50;;;10.30;99.90;;;;;;6150402;28;20478;-66
2023/04/22 01:38:13;;;;;;;5.97;5.47;;;10.30;99.90;;;;;;6149807;28;20478;-66
2023/04/22 01:41:19;;;;;;;9.47;7.23;;;10.20;99.90;;;;;;6150941;28;20478;-66
2023/04/22 01:44:23;;;;;;;12.83;7.83;;;10.10;99.90;;;;;;6150541;28;20505;-66
2023/04/22 01:47:27;;;;;;;8.07;7.33;;;10.10;99.90;;;;;;6150980;28;20479;-66
2023/04/22 01:50:30;;;;;;;10.00;8.13;;;10.10;99.90;;;;;;6150188;28;20471;-66
2023/04/22 01:53:33;;;;;;;9.70;7.70;;;10.10;99.90;;;;;;6149776;28;20819;-66
2023/04/22 01:56:39;;;;;;;7.10;6.50;;;10.00;99.90;;;;;;6148876;28;20497;-66
2023/04/22 01:59:44;;;;;;;9.80;7.33;;;10.00;99.90;;;;;;6149745;28;20530;-66
2023/04/22 02:02:50;;;;;;;7.77;6.80;;;9.90;99.90;;;;;;6163858;28;20476;-67
2023/04/22 02:05:54;;;;;;;8.73;7.23;;;9.90;99.90;;;;;;6173707;28;20563;-66
2023/04/22 02:08:59;;;;;;;7.17;6.50;;;9.80;99.90;;;;;;6173604;28;20802;-66
2023/04/22 02:12:04;;;;;;;7.20;6.40;;;9.80;99.90;;;;;;6173377;28;20563;-66
2023/04/22 02:15:08;;;;;;;8.13;6.93;;;9.80;99.90;;;;;;6173931;28;20484;-66
2023/04/22 02:18:11;;;;;;;10.40;6.17;;;9.80;99.90;;;;;;6173744;28;20942;-66
2023/04/22 02:21:15;;;;;;;6.93;6.23;;;9.80;99.90;;;;;;6174016;28;20465;-66
2023/04/22 02:24:18;;;;;;;7.07;6.30;;;9.70;99.90;;;;;;6173350;28;20508;-66
2023/04/22 02:27:23;;;;;;;6.93;6.33;;;9.60;99.90;;;;;;6173973;28;20488;-66
2023/04/22 02:30:26;;;;;;;10.33;6.40;;;9.60;99.90;;;;;;6173454;28;20470;-66
2023/04/22 02:33:29;;;;;;;7.93;6.90;;;9.60;99.90;;;;;;6173499;28;20813;-66
2023/04/22 02:36:33;;;;;;;6.00;5.40;;;9.60;99.90;;;;;;6164868;28;20975;-66
2023/04/22 02:39:36;;;;;;;7.17;6.53;;;9.60;99.90;;;;;;6173705;28;20489;-66
2023/04/22 02:42:41;;;;;;;7.23;6.03;;;9.60;99.90;;;;;;6173007;28;20993;-66
2023/04/22 02:45:44;;;;;;;8.47;7.73;;;9.60;99.90;;;;;;6172091;28;20481;-66
2023/04/22 02:48:48;;;;;;;8.80;6.87;;;9.60;99.90;;;;;;6173123;28;20957;-66
2023/04/22 02:51:51;;;;;;;8.60;7.70;;;9.50;99.90;;;;;;6172171;28;20564;-67
2023/04/22 02:54:55;;;;;;;9.23;7.80;;;9.50;99.90;;;;;;6172568;28;20567;-67
2023/04/22 02:57:59;;;;;;;7.30;6.30;;;9.40;99.90;;;;;;6173033;28;20485;-67
2023/04/22 03:01:02;;;;;;;6.97;6.27;;;9.40;99.90;;;;;;6173019;28;20438;-66
2023/04/22 03:04:06;;;;;;;7.30;6.70;;;9.40;99.90;;;;;;6173032;28;20473;-66
2023/04/22 03:07:09;;;;;;;7.23;6.40;;;9.40;99.90;;;;;;6173328;28;20513;-66
2023/04/22 03:10:12;;;;;;;7.40;6.67;;;9.40;99.90;;;;;;6172967;28;20446;-66
2023/04/22 03:13:17;;;;;;;8.20;7.40;;;9.30;99.90;;;;;;6173174;28;20441;-66
2023/04/22 03:16:23;;;;;;;7.00;6.40;;;9.40;99.90;;;;;;6172564;28;20551;-67
2023/04/22 03:19:26;;;;;;;8.03;6.73;;;9.30;99.90;;;;;;6172689;28;20560;-66
2023/04/22 03:22:29;;;;;;;8.40;7.20;;;9.30;99.90;;;;;;6172442;28;20480;-67
2023/04/22 03:25:33;;;;;;;7.40;6.30;;;9.30;99.90;;;;;;6172570;28;20980;-66
2023/04/22 03:28:37;;;;;;;8.80;6.60;;;9.20;99.90;;;;;;6172460;28;20949;-66
2023/04/22 03:31:41;;;;;;;6.50;5.97;;;9.20;99.90;;;;;;6172606;28;20825;-66
2023/04/22 03:34:44;;;;;;;6.87;6.27;;;9.20;99.90;;;;;;6172432;28;20485;-66
2023/04/22 03:37:48;;;;;;;6.83;6.00;;;9.10;99.90;;;;;;6168024;28;20840;-66
2023/04/22 03:40:51;;;;;;;8.87;7.53;;;9.10;99.90;;;;;;6172653;28;20474;-66
2023/04/22 03:43:55;;;;;;;9.60;7.30;;;9.10;99.90;;;;;;6172284;28;20485;-66
2023/04/22 03:47:01;;;;;;;8.43;7.33;;;9.00;99.90;;;;;;6172413;28;20547;-66
2023/04/22 03:50:05;;;;;;;8.70;7.23;;;9.00;99.90;;;;;;6172611;28;20488;-66
2023/04/22 03:53:09;;;;;;;13.13;7.30;;;9.00;99.90;;;;;;6172382;28;20473;-66
2023/04/22 03:56:12;;;;;;;9.10;6.80;;;9.00;99.90;;;;;;6171821;28;20840;-66
2023/04/22 03:59:18;;;;;;;10.87;7.10;;;8.90;99.90;;;;;;6172433;28;20791;-66
2023/04/22 04:02:21;;;;;;;7.70;7.00;;;9.00;99.90;;;;;;6176432;28;20488;-66
2023/04/22 04:05:24;;;;;;;7.23;6.50;;;8.90;99.90;;;;;;6176493;28;20482;-66
2023/04/22 04:08:27;;;;;;;9.20;7.10;;;8.90;99.90;;;;;;6176340;28;20524;-66
2023/04/22 04:11:30;;;;;;;9.37;6.30;;;8.90;99.90;;;;;;6176393;28;20799;-66
2023/04/22 04:14:35;;;;;;;7.83;7.03;;;8.80;99.90;;;;;;6176360;28;20474;-66
2023/04/22 04:17:38;;;;;;;6.77;5.93;;;8.90;99.90;;;;;;6175961;28;20812;-66
2023/04/22 04:20:41;;;;;;;6.90;6.30;;;8.90;99.90;;;;;;6175878;28;20469;-66
2023/04/22 04:23:45;;;;;;;7.40;6.60;;;8.90;99.90;;;;;;6175702;28;20481;-66
2023/04/22 04:26:48;;;;;;;7.33;6.47;;;8.90;99.90;;;;;;6175736;28;20465;-66
2023/04/22 04:29:54;;;;;;;9.93;7.23;;;9.00;99.90;;;;;;6175866;28;20473;-66
2023/04/22 04:32:57;;;;;;;7.60;6.80;;;9.00;99.90;;;;;;6175781;28;20469;-66
2023/04/22 04:36:01;;;;;;;7.00;5.73;;;9.00;99.90;;;;;;6175448;28;20481;-66
2023/04/22 04:39:05;;;;;;;8.37;7.50;;;9.00;99.90;;;;;;6175703;28;20470;-66
2023/04/22 04:42:08;;;;;;;9.10;7.63;;;9.00;99.90;;;;;;6175279;28;20480;-66
2023/04/22 04:45:13;;;;;;;11.37;7.83;;;8.90;99.90;;;;;;6175234;28;20473;-66
2023/04/22 04:48:16;;;;;;;8.30;6.87;;;9.00;99.90;;;;;;6175583;28;20481;-66
2023/04/22 04:51:19;;;;;;;7.20;6.00;;;9.10;99.90;;;;;;6175617;28;20470;-66
2023/04/22 04:54:22;;;;;;;7.20;6.60;;;9.10;99.90;;;;;;6175140;28;20478;-67
2023/04/22 04:57:25;;;;;;;7.60;6.90;;;9.10;99.90;;;;;;6175156;28;20486;-66
2023/04/22 05:00:30;;;;;;;7.70;7.00;;;9.20;99.90;;;;;;6175008;28;20476;-66
2023/04/22 05:03:33;;;;;;;11.10;7.30;;;9.20;99.90;;;;;;6175216;28;20474;-66
2023/04/22 05:06:37;;;;;;;7.50;6.80;;;9.30;99.90;;;;;;6175170;28;20482;-66
2023/04/22 05:09:40;;;;;;;7.90;7.10;;;9.50;99.90;;;;;;6175259;28;20805;-66
2023/04/22 05:12:46;;;;;;;8.37;7.57;;;9.80;99.90;;;;;;6174183;28;20821;-66
2023/04/22 05:15:51;;;;;;;7.43;6.50;;;10.10;99.90;;;;;;6175141;28;20568;-66
2023/04/22 05:18:54;;;;;;;6.33;5.73;;;10.40;99.90;;;;;;6174881;28;20485;-66
2023/04/22 05:21:57;;;;;;;7.10;6.50;;;10.70;99.90;;;;;;6174887;28;20481;-66
2023/04/22 05:25:00;;;;;;;6.80;6.20;;;11.00;99.90;;;;;;6174615;28;21015;-65
2023/04/22 05:28:03;;;;;;;8.10;6.23;;;11.40;99.90;;;;;;6174400;28;20496;-66
2023/04/22 05:31:08;;;;;;;6.40;5.80;;;11.80;99.90;;;;;;6174876;28;20511;-66
2023/04/22 05:34:11;;;;;;;6.70;6.10;;;12.30;99.90;;;;;;6174571;28;20466;-67
2023/04/22 05:37:14;;;;;;;7.37;6.77;;;12.70;99.90;;;;;;6174106;28;20972;-66
2023/04/22 05:40:17;;;;;;;8.03;7.40;;;13.00;99.90;;;;;;6174363;28;20454;-67
2023/04/22 05:43:21;;;;;;;9.37;7.30;;;13.50;99.90;;;;;;6174200;28;20461;-66
2023/04/22 05:46:25;;;;;;;8.33;7.00;;;14.20;99.20;;;;;;6165841;28;20450;-66
2023/04/22 05:49:28;;;;;;;8.23;7.40;;;14.90;98.30;;;;;;6174499;28;20484;-66
2023/04/22 05:52:31;;;;;;;7.87;7.13;;;15.50;97.30;;;;;;6174569;28;20478;-66
2023/04/22 05:55:35;;;;;;;7.00;6.40;;;16.10;96.00;;;;;;6174266;28;20855;-67
2023/04/22 05:58:38;;;;;;;6.93;6.33;;;16.80;94.90;;;;;;6174287;28;20473;-66
2023/04/22 06:01:43;;;;;;;6.73;6.10;;;17.40;93.50;;;;;;6174310;28;20473;-66
2023/04/22 06:04:46;;;;;;;6.80;5.57;;;17.90;92.30;;;;;;6174272;28;20482;-66
2023/04/22 06:07:49;;;;;;;7.53;6.83;;;18.30;91.20;;;;;;6173874;28;20469;-66
2023/04/22 06:10:53;;;;;;;7.30;6.60;;;18.80;89.90;;;;;;6174986;28;20515;-66
2023/04/22 06:13:58;;;;;;;7.43;6.73;;;19.50;87.20;;;;;;6174717;28;20489;-66
2023/04/22 06:17:03;;;;;;;7.63;6.83;;;20.10;83.20;;;;;;6174837;28;20226;-66
2023/04/22 06:20:07;;;;;;;7.50;6.80;;;20.40;80.20;;;;;;6173970;28;20230;-66
2023/04/22 06:23:10;;;;;;;6.70;6.10;;;20.80;78.30;;;;;;6173821;28;20238;-67
2023/04/22 06:26:14;;;;;;;7.07;6.47;;;21.20;75.70;;;;;;6174920;28;20576;-66
2023/04/22 06:29:17;;;;;;;7.97;7.27;;;21.90;73.20;;;;;;6177755;28;20226;-66
2023/04/22 06:32:21;;;;;;;7.50;6.77;;;22.40;70.10;;;;;;6179159;28;20230;-66
2023/04/22 06:35:24;;;;;;;9.23;7.47;;;23.00;66.70;;;;;;6176109;28;20248;-66
2023/04/22 06:38:27;;;;;;;7.30;6.60;;;23.60;64.00;;;;;;6175582;28;20265;-66
2023/04/22 06:41:31;;;;;;;7.43;6.67;;;24.20;61.00;;;;;;6173994;28;20238;-66
2023/04/22 06:44:34;;;;;;;7.20;6.17;;;24.70;58.40;;;;;;6173376;28;20622;-66
2023/04/22 06:47:39;;;;;;;7.03;6.43;;;25.30;56.00;;;;;;6173260;28;20230;-66
2023/04/22 06:50:42;;;;;;;7.07;6.47;;;25.80;53.70;;;;;;6173752;28;20230;-66
2023/04/22 06:53:46;;;;;;;7.73;7.03;;;26.30;51.70;;;;;;6173663;28;20238;-66
2023/04/22 06:56:49;;;;;;;7.63;6.80;;;26.70;49.30;;;;;;6173335;28;20230;-68
2023/04/22 06:59:52;;;;;;;8.10;7.30;;;27.00;48.00;;;;;;6173034;28;20731;-67
2023/04/22 07:02:57;;;;;;;7.57;6.40;;;27.50;46.30;;;;;;6172969;28;20558;-67
2023/04/22 07:06:00;;;;;;;7.23;6.63;;;28.20;45.00;;;;;;6173134;28;20230;-67
2023/04/22 07:09:04;;;;;;;7.13;6.53;;;29.00;43.30;;;;;;6173472;28;20248;-68
2023/04/22 07:12:07;;;;;;;8.03;7.27;;;29.80;41.10;;;;;;6172825;28;20244;-67
2023/04/22 07:15:10;;;;;;;7.10;6.47;;;30.50;39.30;;;;;;6173143;28;20241;-66
2023/04/22 07:18:15;;;;;;;7.23;6.73;;;31.30;37.20;;;;;;6172843;28;20245;-67
2023/04/22 07:21:18;;;;;;;10.02;7.53;;;32.00;35.30;;;;;;6172609;28;20230;-66
2023/04/22 07:24:22;;;;;;;8.70;7.97;;;32.60;33.80;;;;;;6172391;28;20241;-66
2023/04/22 07:27:25;;;;;;;8.65;7.85;;;33.10;32.50;;;;;;6169432;28;20230;-66
2023/04/22 07:30:28;;;;;;;7.63;7.03;;;33.60;30.80;;;;;;6171622;28;20234;-67
2023/04/22 07:33:33;;;;;;;9.63;7.65;;;34.10;29.70;;;;;;6171183;28;20272;-66
2023/04/22 07:36:36;;;;;;;7.28;6.47;;;34.80;28.70;;;;;;6175584;28;20244;-67
2023/04/22 07:39:40;;;;;;;7.68;6.93;;;34.70;27.90;;;;;;6172800;28;20245;-67
2023/04/22 07:42:43;;;;;;;6.38;5.82;;;35.50;27.80;;;;;;6175915;28;20795;-67
2023/04/22 07:45:46;;;;;;;7.47;6.88;;;36.20;26.90;;;;;;6175923;28;20234;-68
2023/04/22 07:48:51;;;;;;;6.82;6.32;;;37.10;25.90;;;;;;6176063;28;20317;-68
2023/04/22 07:51:54;;;;;;;7.00;6.50;;;37.70;24.90;;;;;;6175448;28;20223;-67
2023/04/22 07:54:57;;;;;;;7.15;6.65;;;38.20;24.40;;;;;;6168587;28;20249;-68
2023/04/22 07:58:05;;;;;;;7.55;7.05;;;38.20;23.70;;;;;;6175160;28;20229;-67
2023/04/22 08:01:08;;;;;;;7.70;6.43;;;38.80;23.10;;;;;;6175686;28;20301;-67
2023/04/22 08:04:13;;;;;;;6.90;6.30;;;39.40;22.60;;;;;;6175819;28;20335;-67
2023/04/22 08:07:17;;;;;;;7.72;7.03;;;39.50;21.90;;;;;;6175086;28;20339;-67
2023/04/22 08:10:35;;;;;;;6.95;6.45;;;39.90;22.20;;;;;;6174911;28;20240;-67
2023/04/22 08:13:38;;;;;;;6.82;6.25;;;40.30;21.20;;;;;;6175810;28;20229;-67
2023/04/22 08:16:42;;;;;;;7.43;6.70;;;40.90;20.80;;;;;;6176434;28;20704;-67
2023/04/22 08:19:47;;;;;;;6.43;6.03;;;40.90;20.50;;;;;;6176478;28;20238;-67
2023/04/22 08:22:50;;;;;;;6.80;6.30;;;38.70;21.80;;;;;;6175576;28;20276;-67
2023/04/22 08:25:54;;;;;;;6.38;5.88;;;38.80;21.90;;;;;;6175293;28;20240;-66
2023/04/22 08:28:57;;;;;;;7.00;6.13;;;39.00;21.50;;;;;;6174545;28;20677;-67
2023/04/22 08:32:00;;;;;;;6.78;6.28;;;39.20;20.70;;;;;;6176038;28;20229;-66
2023/04/22 08:35:05;;;;;;;5.72;5.32;;;39.40;21.20;;;;;;6176119;28;20237;-66
2023/04/22 08:38:08;;;;;;;6.85;5.70;;;40.00;21.00;;;;;;6175717;28;20230;-66
2023/04/22 08:41:13;;;;;;;5.35;4.97;;;41.30;19.70;;;;;;6175436;28;20237;-67
2023/04/22 08:44:17;;;;;;;6.43;6.03;;;42.00;19.20;;;;;;6175189;28;20256;-66
2023/04/22 08:47:21;;;;;;;6.47;5.97;;;42.70;18.70;;;;;;6175736;28;20229;-66
2023/04/22 08:50:26;;;;;;;5.40;5.00;;;42.00;19.10;;;;;;6175464;28;20229;-67
2023/04/22 08:53:30;;;;;;;5.90;5.50;;;41.90;19.00;;;;;;6175570;28;20237;-66
2023/04/22 08:56:36;;;;;;;7.38;6.85;;;42.90;18.60;;;;;;6174589;28;20232;-66
2023/04/22 08:59:39;;;;;;;6.25;5.85;;;43.80;18.00;;;;;;6173950;28;20236;-66
2023/04/22 09:02:45;;;;;;;5.97;5.57;;;44.10;17.20;;;;;;6174705;28;20225;-66
2023/04/22 09:05:51;;;;;;;5.97;5.47;;;39.80;19.50;;;;;;6174139;28;20229;-66
2023/04/22 09:08:55;;;;;;;6.60;6.03;;;39.10;20.50;;;;;;6174734;28;20304;-66
2023/04/22 09:11:58;;;;;;;6.57;6.05;;;39.20;20.80;;;;;;6175677;28;20673;-67
2023/04/22 09:15:01;;;;;;;6.15;5.55;;;39.40;20.50;;;;;;6175740;28;20249;-67
2023/04/22 09:18:04;;;;;;;6.45;5.93;;;37.80;21.70;;;;;;6175013;28;20241;-67
2023/04/22 09:21:09;;;;;;;6.45;5.93;;;36.40;22.40;;;;;;6175104;28;20237;-67
2023/04/22 09:24:12;;;;;;;6.22;5.82;;;34.80;23.90;;;;;;6174623;28;20708;-67
2023/04/22 09:27:17;;;;;;;7.53;6.90;;;33.80;24.40;;;;;;6175524;28;20226;-67
2023/04/22 09:30:24;;;;;;;6.03;5.55;;;31.80;26.50;;;;;;6174991;28;20238;-67
2023/04/22 09:33:27;;;;;;;6.90;6.40;;;29.90;28.20;;;;;;6174746;28;20569;-67
2023/04/22 09:36:36;;;;;;;7.20;6.50;;;29.30;29.80;;;;;;6174575;28;20229;-66
2023/04/22 09:39:42;;;;;;;7.70;7.20;;;28.60;30.10;;;;;;6174561;28;20226;-66
2023/04/22 09:42:49;;;;;;;7.73;7.13;;;27.40;32.10;;;;;;6174484;28;20260;-66
2023/04/22 09:45:53;;;;;;;8.00;7.37;;;26.10;34.80;;;;;;6174402;28;20327;-66
2023/04/22 09:48:58;;;;;;;7.60;7.00;;;25.70;36.20;;;;;;6174569;28;20558;-66
2023/04/22 09:52:03;;;;;;;8.00;7.43;;;25.30;36.90;;;;;;6174847;28;20226;-66
2023/04/22 09:55:09;;;;;;;6.97;6.27;;;25.00;38.00;;;;;;6174264;28;20238;-66
2023/04/22 09:58:14;;;;;;;7.63;7.03;;;24.30;38.90;;;;;;6169723;28;20275;-66
2023/04/22 10:01:17;;;;;;;7.50;6.80;;;23.90;39.70;;;;;;6174090;28;20222;-66
2023/04/22 10:04:22;;;;;;;7.87;7.17;;;23.80;40.20;;;;;;6174889;28;20241;-66
2023/04/22 10:07:30;;;;;;;7.00;6.30;;;23.50;40.20;;;;;;6174664;28;20289;-66
2023/04/22 10:10:34;;;;;;;6.97;6.37;;;23.40;40.90;;;;;;6173771;28;20222;-66
2023/04/22 10:13:37;;;;;;;6.33;5.70;;;23.10;41.30;;;;;;6174542;28;20234;-66
2023/04/22 10:16:42;;;;;;;7.07;6.37;;;23.20;41.60;;;;;;6173990;28;20223;-66
2023/04/22 10:19:47;;;;;;;6.10;5.60;;;23.20;40.80;;;;;;6174088;28;20245;-66
2023/04/22 10:22:53;;;;;;;5.77;5.27;;;22.80;41.30;;;;;;6173461;28;20234;-66
2023/04/22 10:25:56;;;;;;;7.70;7.00;;;22.90;41.90;;;;;;6173881;28;20230;-66
2023/04/22 10:28:59;;;;;;;5.83;5.33;;;23.00;42.00;;;;;;6173009;28;20568;-64
2023/04/22 10:32:05;;;;;;;7.00;6.30;;;22.50;42.00;;;;;;6172756;28;20251;-66
2023/04/22 10:35:15;;;;;;;6.80;5.87;;;22.30;43.40;;;;;;6172567;28;20235;-66
2023/04/22 10:38:19;;;;;;;5.60;5.20;;;22.60;43.50;;;;;;6173186;28;20276;-66
2023/04/22 10:41:24;;;;;;;5.77;5.33;;;22.20;42.40;;;;;;6171756;28;20242;-66
2023/04/22 10:44:30;;;;;;;6.63;5.77;;;22.40;42.90;;;;;;6170108;28;20231;-66
2023/04/22 10:47:35;;;;;;;6.57;5.37;;;22.40;43.10;;;;;;6171956;28;20226;-66
2023/04/22 10:50:38;;;;;;;6.47;5.87;;;22.20;43.30;;;;;;6173567;28;20651;-67
2023/04/22 10:53:44;;;;;;;6.50;6.00;;;22.20;43.90;;;;;;6172742;28;20388;-67
2023/04/22 10:57:04;;;;;;;6.20;5.70;;;22.40;43.30;;;;;;6173419;28;20245;-66
2023/04/22 11:00:32;;;;;;;6.03;5.53;;;22.30;43.60;;;;;;6173194;28;20242;-67
2023/04/22 11:03:54;;;;;;;7.23;5.10;;;22.70;42.20;;;;;;6173215;28;20238;-67
2023/04/22 11:07:13;;;;;;;5.43;5.03;;;23.00;42.00;;;;;;6164493;28;20315;-67
2023/04/22 11:10:39;;;;;;;6.37;5.87;;;23.20;41.20;;;;;;6173975;28;20218;-67
2023/04/22 11:13:43;;;;;;;6.30;5.30;;;23.30;40.90;;;;;;6179626;28;20234;-67
2023/04/22 11:16:47;;;;;;;6.03;5.43;;;23.70;40.70;;;;;;6198570;28;20226;-66
2023/04/22 11:19:54;;;;;;;7.23;4.77;;;23.90;40.50;;;;;;6177533;28;20233;-66
2023/04/22 11:22:58;;;;;;;5.60;5.20;;;23.90;39.70;;;;;;6177429;28;20233;-66
2023/04/22 11:26:05;;;;;;;5.97;4.50;;;23.80;38.90;;;;;;6177153;28;20242;-66
2023/04/22 11:29:08;;;;;;;5.20;4.70;;;23.90;38.10;;;;;;6177382;28;20241;-66
2023/04/22 11:32:12;;;;;;;5.33;4.93;;;23.90;39.00;;;;;;6177150;28;20244;-66
2023/04/22 11:35:18;;;;;;;5.27;4.83;;;23.70;38.80;;;;;;6176785;28;20538;-66
2023/04/22 11:38:21;;;;;;;5.30;4.90;;;23.80;38.90;;;;;;6174220;28;20241;-67
2023/04/22 11:41:28;;;;;;;6.27;5.50;;;23.80;39.50;;;;;;6176134;28;20789;-67
2023/04/22 11:44:32;;;;;;;5.30;4.83;;;23.50;39.20;;;;;;6152524;28;20250;-66
2023/04/22 11:47:35;;;;;;;4.60;4.30;;;23.50;40.10;;;;;;6166867;28;20233;-66
2023/04/22 11:50:41;;;;;;;5.03;4.70;;;23.40;38.90;;;;;;6177451;28;20213;-66
2023/04/22 11:53:50;;;;;;;4.63;4.33;;;23.60;38.70;;;;;;6178314;28;20230;-67
2023/04/22 11:56:55;;;;;;;5.63;4.00;;;23.20;37.30;;;;;;6155602;28;20235;-66
2023/04/22 11:59:58;;;;;;;4.03;3.67;;;23.30;38.50;;;;;;6156537;28;20229;-65
2023/04/22 12:03:03;;;;;;;4.00;3.70;;;23.30;37.20;;;;;;6176117;28;20260;-66
2023/04/22 12:06:07;;;;;;;8.10;5.10;;;23.30;37.90;;;;;;6176073;28;20245;-68
2023/04/22 12:09:10;;;;;;;4.87;4.47;;;23.40;39.60;;;;;;6175806;28;20235;-67
2023/04/22 12:12:17;;;;;;;5.23;4.70;;;23.30;39.50;;;;;;6168569;28;20340;-67
2023/04/22 12:15:20;;;;;;;6.57;5.33;;;23.20;39.70;;;;;;6151859;28;20239;-68
2023/04/22 12:18:30;;;;;;;5.73;4.70;;;23.50;39.90;;;;;;6156854;28;20670;-67
2023/04/22 12:21:34;;;;;;;5.57;5.17;;;23.70;39.90;;;;;;6174941;28;20237;-65
2023/04/22 12:24:37;;;;;;;4.90;4.23;;;23.90;39.20;;;;;;6175634;28;20230;-66
2023/04/22 12:27:41;;;;;;;4.60;4.20;;;24.20;38.70;;;;;;6176308;28;20725;-66
2023/04/22 12:30:45;;;;;;;4.40;4.00;;;24.50;38.00;;;;;;6176923;28;20241;-67
2023/04/22 12:33:48;;;;;;;5.07;4.67;;;24.60;37.60;;;;;;6175830;28;20747;-67
2023/04/22 12:36:51;;;;;;;5.13;4.63;;;24.40;37.90;;;;;;6176745;28;20244;-67
2023/04/22 12:39:55;;;;;;;5.33;4.93;;;24.10;37.90;;;;;;6176230;28;20226;-67
2023/04/22 12:42:59;;;;;;;4.23;3.93;;;24.00;38.90;;;;;;6176000;28;20531;-66
2023/04/22 12:46:03;;;;;;;5.10;4.70;;;24.30;38.40;;;;;;6175404;28;20245;-66
2023/04/22 12:49:06;;;;;;;4.63;4.23;;;24.40;38.70;;;;;;6176223;28;20241;-66
2023/04/22 12:52:10;;;;;;;5.30;4.90;;;24.40;38.50;;;;;;6175591;28;20773;-66
2023/04/22 12:55:13;;;;;;;6.00;5.00;;;24.50;38.10;;;;;;6175884;28;20332;-67
2023/04/22 12:58:18;;;;;;;4.47;4.07;;;24.60;38.60;;;;;;6175966;28;20547;-66
2023/04/22 13:01:21;;;;;;;6.30;5.70;;;24.20;39.20;;;;;;6175969;28;20226;-66
2023/04/22 13:04:24;;;;;;;5.67;5.20;;;23.80;39.70;;;;;;6172023;28;20313;-67
2023/04/22 13:07:27;;;;;;;5.50;5.00;;;24.00;39.10;;;;;;6175483;28;20646;-66
2023/04/22 13:10:31;;;;;;;5.43;4.93;;;24.10;38.90;;;;;;6175627;28;20237;-66
2023/04/22 13:13:35;;;;;;;4.87;4.37;;;24.10;39.20;;;;;;6265018;28;20324;-67
2023/04/22 13:16:38;;;;;;;5.30;4.80;;;24.10;39.80;;;;;;6301960;28;20237;-67
2023/04/22 13:19:42;;;;;;;4.80;4.40;;;24.20;39.40;;;;;;6301721;28;20303;-67
2023/04/22 13:22:46;;;;;;;5.07;4.67;;;24.40;39.40;;;;;;6301466;28;20658;-66
2023/04/22 13:25:49;;;;;;;4.90;4.50;;;24.30;38.80;;;;;;6301066;28;20296;-66
2023/04/22 13:28:54;;;;;;;5.80;4.90;;;24.10;39.10;;;;;;6301272;28;20227;-67
2023/04/22 13:31:57;;;;;;;5.10;4.70;;;23.90;40.20;;;;;;6300554;28;20669;-67
2023/04/22 13:35:00;;;;;;;5.20;4.70;;;23.80;40.10;;;;;;6301181;28;20236;-67
2023/04/22 13:38:06;;;;;;;6.63;6.03;;;23.80;38.90;;;;;;6287047;28;20230;-67
2023/04/22 13:41:12;;;;;;;5.50;5.00;;;23.60;38.80;;;;;;6175077;28;20249;-67
2023/04/22 13:44:16;;;;;;;5.20;4.80;;;23.60;39.30;;;;;;6175004;28;20253;-66
2023/04/22 13:47:19;;;;;;;5.60;5.10;;;23.80;38.90;;;;;;6175004;28;20231;-67
2023/04/22 13:50:23;;;;;;;5.30;4.80;;;23.90;39.50;;;;;;6175591;28;20256;-66
2023/04/22 13:53:26;;;;;;;5.67;5.13;;;23.90;39.80;;;;;;6174499;28;20261;-67
2023/04/22 13:56:29;;;;;;;5.60;5.10;;;23.50;40.10;;;;;;6174954;28;20245;-67
2023/04/22 13:59:35;;;;;;;5.60;5.10;;;23.20;41.00;;;;;;6175189;28;20234;-67
2023/04/22 14:02:38;;;;;;;6.10;4.60;;;23.30;41.20;;;;;;6174693;28;20581;-67
2023/04/22 14:05:42;;;;;;;5.73;4.30;;;23.20;41.20;;;;;;6174241;28;20253;-67
2023/04/22 14:08:45;;;;;;;4.80;4.17;;;23.20;41.10;;;;;;6174022;28;20234;-67
2023/04/22 14:11:48;;;;;;;5.20;4.80;;;23.20;41.10;;;;;;6174677;28;20234;-66
2023/04/22 14:14:53;;;;;;;5.70;4.50;;;23.00;41.20;;;;;;6175227;28;20244;-66
2023/04/22 14:17:56;;;;;;;6.37;5.30;;;22.90;41.20;;;;;;6174164;28;20245;-66
2023/04/22 14:20:59;;;;;;;6.87;4.63;;;22.60;41.50;;;;;;6173911;28;20237;-66
2023/04/22 14:24:03;;;;;;;5.40;4.47;;;22.50;41.60;;;;;;6173023;28;20685;-66
2023/04/22 14:27:06;;;;;;;5.27;4.67;;;22.40;41.50;;;;;;6173562;28;20237;-66
2023/04/22 14:30:12;;;;;;;4.63;4.23;;;22.40;42.20;;;;;;6173397;28;20230;-66
2023/04/22 14:33:15;;;;;;;4.00;3.70;;;22.40;41.60;;;;;;6173395;28;20287;-66
2023/04/22 14:36:18;;;;;;;4.50;4.10;;;22.50;41.00;;;;;;6173379;28;20249;-66
2023/04/22 14:39:21;;;;;;;4.47;4.00;;;22.70;40.80;;;;;;6173168;28;20233;-66
2023/04/22 14:42:25;;;;;;;4.80;4.40;;;22.80;40.90;;;;;;6173416;28;20241;-66
2023/04/22 14:45:31;;;;;;;4.90;4.50;;;22.70;41.10;;;;;;6172497;28;20241;-66
2023/04/22 14:48:34;;;;;;;5.07;4.57;;;22.70;41.00;;;;;;6173146;28;20240;-66
2023/04/22 14:51:37;;;;;;;4.40;4.10;;;22.60;41.50;;;;;;6173043;28;20222;-67
2023/04/22 14:54:40;;;;;;;4.80;4.40;;;22.60;41.20;;;;;;6172351;28;20226;-65
2023/04/22 14:57:44;;;;;;;4.37;3.97;;;22.70;41.20;;;;;;6172756;28;20242;-66
2023/04/22 15:00:48;;;;;;;4.60;4.20;;;22.70;41.10;;;;;;6171540;28;20217;-66
2023/04/22 15:03:51;;;;;;;5.30;4.73;;;22.80;40.90;;;;;;6170619;28;20564;-67
2023/04/22 15:06:56;;;;;;;4.97;4.53;;;22.80;41.30;;;;;;6171346;28;20326;-67
2023/04/22 15:09:59;;;;;;;5.30;4.70;;;22.80;40.90;;;;;;6172255;28;20270;-67
2023/04/22 15:13:02;;;;;;;6.13;4.80;;;22.80;41.10;;;;;;6172705;28;20234;-67
2023/04/22 15:16:07;;;;;;;5.67;4.67;;;22.70;41.40;;;;;;6164437;28;20705;-67
2023/04/22 15:19:10;;;;;;;4.73;4.33;;;22.30;41.40;;;;;;6172114;28;20573;-67
2023/04/22 15:22:13;;;;;;;5.20;4.53;;;22.20;41.30;;;;;;6172514;28;20230;-67
2023/04/22 15:25:17;;;;;;;5.70;4.30;;;22.20;41.70;;;;;;6172527;28;20237;-67
2023/04/22 15:28:20;;;;;;;4.80;4.03;;;22.10;41.60;;;;;;6172915;28;20585;-67
2023/04/22 15:31:25;;;;;;;4.70;4.30;;;22.10;42.20;;;;;;6172417;28;20622;-67
2023/04/22 15:34:28;;;;;;;4.80;4.40;;;22.20;42.00;;;;;;6172496;28;20292;-67
2023/04/22 15:37:31;;;;;;;5.37;4.87;;;22.30;41.40;;;;;;6172821;28;20238;-67
2023/04/22 15:40:34;;;;;;;11.10;9.23;;;22.40;41.90;;;;;;6172450;28;20241;-66
2023/04/22 15:43:38;;;;;;;19.50;17.60;;;22.50;41.70;;;;;;6172192;28;20303;-66
2023/04/22 15:46:42;;;;;;;7.20;6.50;;;22.50;40.40;;;;;;6172185;28;20242;-66
2023/04/22 15:49:46;;;;;;;7.80;7.20;;;22.20;40.90;;;;;;6172388;28;20226;-66
2023/04/22 15:52:49;;;;;;;7.73;5.07;;;22.10;41.20;;;;;;6172103;28;20818;-66
2023/04/22 15:55:52;;;;;;;4.70;4.37;;;22.20;41.60;;;;;;6172576;28;20529;-66
2023/04/22 15:58:56;;;;;;;6.07;4.73;;;22.30;42.30;;;;;;6175836;28;20666;-65